Time;durP1;ratioP1;P1;durP2;ratioP2;P2;SDS_P1;SDS_P2;PMS_P1;PMS_P2;Temp;Humidity;BMP_temperature;BMP_pressure;BME280_temperature;BME280_humidity;BME280_pressure;Samples;Min_cycle;Max_cycle;Signal;HPM_P1;HPM_P2
2023/09/07 00:01:37;;;;;;;8.60;3.78;;;19.50;99.90;;;;;;4925776;29;20672;-89
2023/09/07 00:04:08;;;;;;;11.98;4.18;;;19.60;99.90;;;;;;4905850;29;20190;-90
2023/09/07 00:06:39;;;;;;;7.72;3.75;;;19.70;99.90;;;;;;4922200;29;20225;-89
2023/09/07 00:09:11;;;;;;;8.23;3.50;;;19.80;99.90;;;;;;4924137;29;20201;-90
2023/09/07 00:11:42;;;;;;;7.18;4.07;;;19.80;99.90;;;;;;4919537;29;20205;-90
2023/09/07 00:14:13;;;;;;;8.05;4.10;;;19.80;99.90;;;;;;4929049;29;20200;-91
2023/09/07 00:16:47;;;;;;;8.63;4.07;;;19.80;99.90;;;;;;4937107;29;20219;-92
2023/09/07 00:19:17;;;;;;;8.57;4.13;;;19.90;99.90;;;;;;4937616;29;20204;-91
2023/09/07 00:21:48;;;;;;;10.13;4.70;;;20.00;99.90;;;;;;4936347;29;20215;-91
2023/09/07 00:24:19;;;;;;;7.00;4.10;;;20.00;99.90;;;;;;4935964;29;20208;-90
2023/09/07 00:26:49;;;;;;;7.45;4.50;;;19.90;99.90;;;;;;4924902;29;20241;-90
2023/09/07 00:29:20;;;;;;;10.27;4.63;;;20.00;99.90;;;;;;4929059;29;20185;-92
2023/09/07 00:31:57;;;;;;;13.65;5.53;;;20.10;99.90;;;;;;4922184;29;20212;-91
2023/09/07 00:34:28;;;;;;;11.80;5.18;;;20.20;99.90;;;;;;4920942;29;20239;-91
2023/09/07 00:36:59;;;;;;;12.52;5.80;;;20.30;99.90;;;;;;4902449;29;20696;-90
2023/09/07 00:39:30;;;;;;;16.02;6.95;;;20.50;99.90;;;;;;4918402;29;20669;-90
2023/09/07 00:42:01;;;;;;;19.27;8.48;;;20.70;99.90;;;;;;4932237;29;20201;-90
2023/09/07 00:44:32;;;;;;;21.35;11.88;;;20.70;99.90;;;;;;4924062;29;20197;-91
2023/09/07 00:47:05;;;;;;;25.55;17.67;;;20.90;99.90;;;;;;4936657;29;20607;-91
2023/09/07 00:49:36;;;;;;;36.30;21.73;;;21.00;99.90;;;;;;4927534;29;20190;-87
2023/09/07 00:52:08;;;;;;;31.23;20.77;;;21.10;99.90;;;;;;4927628;29;20221;-87
2023/09/07 00:54:40;;;;;;;34.72;22.30;;;21.10;99.90;;;;;;4935485;29;20213;-85
2023/09/07 00:57:12;;;;;;;32.03;21.52;;;21.20;99.90;;;;;;4935549;29;20200;-91
2023/09/07 00:59:42;;;;;;;29.98;19.73;;;21.30;99.90;;;;;;4931519;29;20206;-90
2023/09/07 01:02:17;;;;;;;28.80;18.48;;;21.40;99.90;;;;;;4936724;29;20203;-91
2023/09/07 01:04:49;;;;;;;29.13;18.85;;;21.50;99.90;;;;;;4940900;29;20204;-91
2023/09/07 01:07:26;;;;;;;30.20;17.08;;;21.60;99.90;;;;;;4936242;29;20242;-91
2023/09/07 01:10:00;;;;;;;25.08;15.90;;;21.70;99.90;;;;;;4921426;29;20292;-89
2023/09/07 01:12:31;;;;;;;22.00;13.60;;;21.80;99.90;;;;;;4935883;29;20260;-92
2023/09/07 01:15:04;;;;;;;22.60;11.30;;;21.90;99.90;;;;;;4941695;29;20263;-89
2023/09/07 01:17:39;;;;;;;20.38;10.77;;;22.00;99.90;;;;;;4935906;29;20284;-92
2023/09/07 01:20:13;;;;;;;19.27;10.45;;;22.10;99.90;;;;;;4930028;29;20196;-91
2023/09/07 01:22:49;;;;;;;26.70;10.30;;;22.20;99.90;;;;;;4933058;29;20196;-92
2023/09/07 01:25:21;;;;;;;17.85;9.95;;;22.40;99.90;;;;;;4933812;29;20224;-90
2023/09/07 01:27:53;;;;;;;15.75;9.98;;;22.50;99.90;;;;;;4918292;29;20229;-90
2023/09/07 01:30:24;;;;;;;12.63;8.07;;;22.60;99.90;;;;;;4918195;29;20547;-88
2023/09/07 01:32:55;;;;;;;13.63;7.45;;;22.60;99.90;;;;;;4937518;29;20846;-90
2023/09/07 01:35:26;;;;;;;14.00;7.00;;;22.60;99.90;;;;;;4936079;29;20698;-90
2023/09/07 01:37:59;;;;;;;13.88;7.45;;;22.60;99.90;;;;;;4944196;29;20211;-90
2023/09/07 01:40:31;;;;;;;14.38;6.28;;;22.70;99.90;;;;;;4955020;29;20192;-89
2023/09/07 01:43:02;;;;;;;9.77;5.43;;;22.80;99.90;;;;;;4955084;29;20603;-90
2023/09/07 01:45:31;;;;;;;12.45;5.35;;;22.90;99.90;;;;;;4953888;29;20285;-89
2023/09/07 01:48:03;;;;;;;8.98;4.90;;;22.90;99.90;;;;;;4952822;29;20224;-90
2023/09/07 01:50:34;;;;;;;13.95;5.55;;;22.90;99.90;;;;;;4920098;29;20305;-89
2023/09/07 01:53:08;;;;;;;13.18;5.68;;;22.90;99.90;;;;;;4918251;29;20224;-89
2023/09/07 01:55:39;;;;;;;8.95;4.80;;;23.00;99.90;;;;;;4947632;29;20567;-89
2023/09/07 01:58:10;;;;;;;9.80;4.22;;;22.90;99.90;;;;;;4951390;29;20204;-90
2023/09/07 02:00:41;;;;;;;11.95;4.93;;;22.90;99.90;;;;;;4935381;29;20208;-90
2023/09/07 02:03:13;;;;;;;7.05;4.38;;;22.70;99.90;;;;;;4948320;29;20627;-88
2023/09/07 02:05:43;;;;;;;10.80;4.70;;;22.80;99.90;;;;;;4956256;29;20203;-88
2023/09/07 02:08:17;;;;;;;12.88;5.30;;;22.90;99.90;;;;;;4955276;29;20224;-89
2023/09/07 02:10:48;;;;;;;11.63;6.47;;;22.80;99.90;;;;;;4948568;28;20224;-88
2023/09/07 02:13:19;;;;;;;12.00;6.03;;;22.90;99.90;;;;;;4938806;29;20212;-87
2023/09/07 02:15:50;;;;;;;14.60;6.88;;;23.00;99.90;;;;;;4955126;29;20200;-87
2023/09/07 02:18:21;;;;;;;9.88;6.63;;;23.00;99.90;;;;;;4958101;29;20204;-89
2023/09/07 02:20:54;;;;;;;12.13;6.60;;;23.10;99.90;;;;;;4951887;29;20201;-89
2023/09/07 02:23:28;;;;;;;9.23;5.93;;;23.20;99.90;;;;;;4940804;29;20204;-88
2023/09/07 02:25:59;;;;;;;12.18;6.40;;;23.40;99.90;;;;;;4953653;29;20686;-89
2023/09/07 02:28:31;;;;;;;14.20;7.05;;;23.50;99.90;;;;;;4957351;29;20224;-88
2023/09/07 02:31:10;;;;;;;10.70;6.82;;;23.50;99.90;;;;;;4947147;29;20665;-87
2023/09/07 02:33:40;;;;;;;8.63;5.55;;;23.70;99.90;;;;;;4947313;29;20232;-88
2023/09/07 02:36:11;;;;;;;10.07;6.05;;;23.80;99.90;;;;;;4964733;29;20214;-88
2023/09/07 02:38:50;;;;;;;9.70;5.82;;;23.80;99.90;;;;;;4943155;29;20207;-90
2023/09/07 02:41:21;;;;;;;10.52;5.22;;;23.80;99.90;;;;;;4958937;29;20240;-88
2023/09/07 02:43:52;;;;;;;10.00;5.75;;;23.90;99.90;;;;;;4937171;29;20584;-88
2023/09/07 02:46:23;;;;;;;9.63;5.47;;;23.90;99.90;;;;;;4939595;29;20224;-88
2023/09/07 02:48:56;;;;;;;10.93;5.72;;;23.90;99.90;;;;;;4938972;29;20224;-88
2023/09/07 02:51:27;;;;;;;11.10;5.57;;;23.90;99.90;;;;;;4937716;29;20209;-89
2023/09/07 02:54:00;;;;;;;12.90;5.85;;;23.90;99.90;;;;;;4955949;29;20216;-87
2023/09/07 02:56:31;;;;;;;7.88;4.90;;;24.10;99.90;;;;;;4939056;29;20208;-88
2023/09/07 02:59:01;;;;;;;11.98;5.20;;;24.20;99.90;;;;;;4951209;29;20200;-88
2023/09/07 03:01:32;;;;;;;10.02;5.50;;;24.20;99.90;;;;;;4952786;29;20201;-87
2023/09/07 03:04:11;;;;;;;12.35;5.60;;;24.20;99.90;;;;;;4954087;29;20200;-89
2023/09/07 03:06:42;;;;;;;9.43;5.50;;;24.10;99.90;;;;;;4957851;29;20226;-87
2023/09/07 03:09:14;;;;;;;12.00;5.55;;;24.20;99.90;;;;;;4956569;28;20240;-86
2023/09/07 03:11:46;;;;;;;12.07;5.00;;;24.10;99.90;;;;;;4952779;29;20200;-90
2023/09/07 03:14:16;;;;;;;9.93;4.60;;;24.20;99.90;;;;;;4956812;29;20199;-87
2023/09/07 03:16:50;;;;;;;10.02;4.70;;;24.10;99.90;;;;;;4957372;29;20581;-89
2023/09/07 03:19:20;;;;;;;9.90;4.22;;;24.40;99.90;;;;;;4968325;28;20202;-87
2023/09/07 03:21:51;;;;;;;7.90;4.72;;;24.50;99.90;;;;;;4963465;28;20189;-86
2023/09/07 03:24:24;;;;;;;9.10;4.60;;;24.50;99.90;;;;;;4972748;28;20600;-86
2023/09/07 03:26:54;;;;;;;7.93;4.68;;;24.50;99.90;;;;;;4974636;28;20191;-86
2023/09/07 03:29:25;;;;;;;11.18;6.18;;;24.50;99.90;;;;;;4968763;28;20210;-86
2023/09/07 03:31:56;;;;;;;10.02;5.70;;;24.20;99.90;;;;;;4979538;28;20207;-86
2023/09/07 03:34:27;;;;;;;12.25;5.32;;;24.20;99.90;;;;;;4962695;29;20625;-88
2023/09/07 03:36:57;;;;;;;12.68;6.47;;;24.30;99.90;;;;;;4957546;29;20199;-87
2023/09/07 03:39:30;;;;;;;13.65;7.93;;;24.30;99.90;;;;;;4962730;28;20235;-88
2023/09/07 03:42:01;;;;;;;11.80;6.53;;;24.30;99.90;;;;;;4957425;29;20200;-87
2023/09/07 03:44:31;;;;;;;9.10;5.60;;;24.30;99.90;;;;;;4956581;29;20207;-87
2023/09/07 03:47:03;;;;;;;11.98;4.90;;;24.50;99.90;;;;;;4956872;29;20211;-87
2023/09/07 03:49:34;;;;;;;8.77;5.18;;;24.20;99.90;;;;;;4953934;29;20236;-86
2023/09/07 03:52:05;;;;;;;12.88;5.75;;;24.20;99.90;;;;;;4948045;29;20224;-87
2023/09/07 03:54:38;;;;;;;10.55;4.70;;;24.10;99.90;;;;;;4954755;29;20200;-87
2023/09/07 03:57:08;;;;;;;8.20;4.90;;;24.10;99.90;;;;;;4955282;29;20215;-88
2023/09/07 03:59:39;;;;;;;9.90;4.40;;;23.90;99.90;;;;;;4956241;29;20200;-88
2023/09/07 04:02:10;;;;;;;7.65;4.90;;;23.90;99.90;;;;;;4956268;29;20216;-88
2023/09/07 04:04:46;;;;;;;7.72;4.18;;;24.00;99.90;;;;;;4957152;29;20200;-87
2023/09/07 04:07:16;;;;;;;12.75;4.68;;;23.90;99.90;;;;;;4949621;29;20261;-87
2023/09/07 04:09:50;;;;;;;7.63;4.40;;;23.80;99.90;;;;;;4948449;29;20208;-87
2023/09/07 04:12:21;;;;;;;7.95;4.60;;;23.90;99.90;;;;;;4956164;29;20663;-90
2023/09/07 04:14:53;;;;;;;7.70;4.47;;;24.00;99.90;;;;;;4928666;29;20203;-89
2023/09/07 04:17:26;;;;;;;9.90;4.28;;;24.10;99.90;;;;;;4921029;29;20231;-90
2023/09/07 04:19:57;;;;;;;8.55;4.13;;;24.00;99.90;;;;;;4965428;28;20210;-89
2023/09/07 04:22:28;;;;;;;8.68;3.88;;;23.90;99.90;;;;;;4975364;28;20282;-89
2023/09/07 04:25:00;;;;;;;9.50;4.55;;;23.90;99.90;;;;;;4959347;28;20211;-90
2023/09/07 04:27:32;;;;;;;8.65;3.80;;;23.90;99.90;;;;;;4955914;29;20200;-90
2023/09/07 04:30:03;;;;;;;11.00;4.00;;;23.70;99.90;;;;;;4955324;29;20561;-89
2023/09/07 04:32:34;;;;;;;7.00;3.88;;;23.80;99.90;;;;;;4969126;28;20188;-89
2023/09/07 04:35:05;;;;;;;8.77;4.07;;;23.90;99.90;;;;;;4960758;29;20234;-87
2023/09/07 04:37:36;;;;;;;7.68;3.47;;;23.90;99.90;;;;;;4952966;29;20222;-88
2023/09/07 04:40:10;;;;;;;8.77;3.83;;;23.90;99.90;;;;;;4954763;29;20223;-88
2023/09/07 04:42:41;;;;;;;11.10;3.90;;;24.00;99.90;;;;;;4947661;29;20204;-87
2023/09/07 04:45:12;;;;;;;8.13;3.38;;;24.10;99.90;;;;;;4937253;29;20217;-88
2023/09/07 04:47:44;;;;;;;7.05;3.20;;;24.10;99.90;;;;;;4942881;29;20214;-87
2023/09/07 04:50:15;;;;;;;6.65;3.45;;;24.00;99.90;;;;;;4955258;29;20571;-87
2023/09/07 04:52:46;;;;;;;6.38;3.78;;;23.90;99.90;;;;;;4956558;29;20668;-86
2023/09/07 04:55:19;;;;;;;10.65;3.80;;;23.90;99.90;;;;;;4957196;29;20200;-87
2023/09/07 04:57:50;;;;;;;11.73;3.45;;;23.90;99.90;;;;;;4949416;29;20256;-86
2023/09/07 05:00:21;;;;;;;8.02;3.58;;;23.90;99.90;;;;;;4945449;29;20192;-87
2023/09/07 05:02:52;;;;;;;7.22;3.80;;;23.90;99.90;;;;;;4950716;29;20209;-87
2023/09/07 05:05:23;;;;;;;12.55;3.88;;;23.90;99.90;;;;;;4951195;29;20203;-87
2023/09/07 05:07:54;;;;;;;10.07;3.80;;;23.90;99.90;;;;;;4954655;29;20204;-87
2023/09/07 05:10:27;;;;;;;8.02;4.15;;;23.90;99.90;;;;;;4949088;29;20566;-87
2023/09/07 05:12:58;;;;;;;9.80;4.05;;;23.60;99.90;;;;;;4954795;29;20207;-87
2023/09/07 05:15:29;;;;;;;8.70;3.63;;;23.60;99.90;;;;;;4953599;29;20290;-86
2023/09/07 05:18:00;;;;;;;8.50;3.80;;;23.60;99.90;;;;;;4954299;29;20204;-87
2023/09/07 05:20:34;;;;;;;10.63;4.20;;;23.60;99.90;;;;;;4953019;29;20211;-86
2023/09/07 05:23:04;;;;;;;6.18;3.85;;;23.70;99.90;;;;;;4944661;29;20220;-87
2023/09/07 05:25:47;;;;;;;9.57;4.60;;;23.70;99.90;;;;;;4954938;29;20219;-87
2023/09/07 05:28:19;;;;;;;7.28;4.00;;;23.80;99.90;;;;;;4947494;29;20221;-86
2023/09/07 05:30:50;;;;;;;9.70;3.90;;;23.70;99.90;;;;;;4935750;29;20196;-85
2023/09/07 05:33:21;;;;;;;7.72;4.20;;;23.80;99.90;;;;;;4954007;29;20303;-87
2023/09/07 05:35:52;;;;;;;8.13;3.90;;;23.90;99.90;;;;;;4953592;28;20223;-85
2023/09/07 05:38:24;;;;;;;10.82;4.43;;;23.80;99.90;;;;;;4968035;29;20196;-86
2023/09/07 05:40:57;;;;;;;13.52;4.20;;;23.90;99.90;;;;;;4954804;29;20203;-85
2023/09/07 05:43:28;;;;;;;8.63;3.63;;;23.90;99.90;;;;;;4955038;29;20200;-86
2023/09/07 05:45:59;;;;;;;10.07;3.80;;;24.00;99.90;;;;;;4953326;29;20643;-86
2023/09/07 05:48:30;;;;;;;7.63;4.00;;;24.00;99.90;;;;;;4951259;29;20224;-85
2023/09/07 05:51:00;;;;;;;7.88;3.28;;;24.00;99.90;;;;;;4943202;29;20207;-86
2023/09/07 05:53:31;;;;;;;8.30;4.20;;;24.00;99.90;;;;;;4953213;29;20204;-87
2023/09/07 05:56:04;;;;;;;8.88;3.28;;;24.00;99.90;;;;;;4939187;29;20208;-87
2023/09/07 05:58:35;;;;;;;12.38;3.90;;;24.10;99.90;;;;;;4934568;29;20222;-86
2023/09/07 06:01:07;;;;;;;10.13;3.33;;;24.10;99.90;;;;;;4937150;29;20200;-87
2023/09/07 06:03:39;;;;;;;7.20;3.28;;;24.20;99.90;;;;;;4940299;29;20201;-87
2023/09/07 06:06:10;;;;;;;13.88;3.70;;;24.30;99.90;;;;;;4961148;29;20215;-89
2023/09/07 06:08:42;;;;;;;8.20;3.78;;;24.40;99.90;;;;;;4956916;29;20228;-88
2023/09/07 06:11:15;;;;;;;8.88;3.30;;;24.40;99.90;;;;;;4940795;29;20195;-87
2023/09/07 06:13:47;;;;;;;9.30;3.58;;;24.50;99.90;;;;;;4961327;29;20247;-88
2023/09/07 06:16:18;;;;;;;10.52;3.70;;;24.50;99.90;;;;;;4934781;29;20200;-89
2023/09/07 06:18:50;;;;;;;9.60;3.53;;;24.50;99.90;;;;;;4944119;28;20207;-88
2023/09/07 06:21:22;;;;;;;9.43;3.60;;;24.60;99.90;;;;;;4970503;28;20283;-88
2023/09/07 06:23:52;;;;;;;11.98;3.38;;;24.60;99.90;;;;;;4939118;29;20213;-87
2023/09/07 06:26:26;;;;;;;11.98;3.92;;;24.60;99.90;;;;;;4937938;29;20200;-86
2023/09/07 06:28:58;;;;;;;7.80;3.38;;;24.50;99.90;;;;;;4953591;29;20226;-87
2023/09/07 06:31:28;;;;;;;10.05;3.40;;;24.60;99.90;;;;;;4953642;29;20196;-87
2023/09/07 06:33:59;;;;;;;11.95;3.45;;;24.50;99.90;;;;;;4942619;29;20221;-88
2023/09/07 06:36:31;;;;;;;10.48;3.67;;;24.50;99.90;;;;;;4952689;29;20227;-86
2023/09/07 06:39:01;;;;;;;10.93;3.95;;;24.50;99.90;;;;;;4964824;29;20208;-88
2023/09/07 06:41:35;;;;;;;12.52;3.72;;;24.40;99.90;;;;;;4936062;29;20279;-88
2023/09/07 06:44:06;;;;;;;13.43;3.92;;;24.30;99.90;;;;;;4950282;29;20193;-88
2023/09/07 06:46:37;;;;;;;13.32;3.83;;;24.20;99.90;;;;;;4950865;29;20208;-88
2023/09/07 06:49:08;;;;;;;10.88;3.75;;;24.00;99.90;;;;;;4954821;29;20240;-88
2023/09/07 06:51:38;;;;;;;11.88;3.70;;;23.80;99.90;;;;;;4954233;29;20200;-88
2023/09/07 06:54:09;;;;;;;12.68;3.78;;;23.70;99.90;;;;;;4953092;29;20215;-88
2023/09/07 06:56:43;;;;;;;10.02;3.70;;;23.70;99.90;;;;;;4940935;29;20200;-88
2023/09/07 06:59:14;;;;;;;12.38;3.95;;;23.50;99.90;;;;;;4957520;29;20200;-88
2023/09/07 07:01:45;;;;;;;12.65;3.80;;;23.40;99.90;;;;;;4956763;29;20207;-89
2023/09/07 07:04:16;;;;;;;8.27;3.63;;;23.40;99.90;;;;;;4957611;29;20191;-89
2023/09/07 07:06:48;;;;;;;12.57;4.03;;;23.20;99.90;;;;;;4941581;29;20212;-89
2023/09/07 07:09:19;;;;;;;10.68;3.45;;;23.20;99.90;;;;;;4946264;28;20224;-89
2023/09/07 07:11:52;;;;;;;11.55;3.60;;;23.10;99.90;;;;;;4939040;29;20208;-89
2023/09/07 07:14:23;;;;;;;11.48;3.42;;;23.00;99.90;;;;;;4941566;29;20302;-91
2023/09/07 07:17:01;;;;;;;13.20;3.85;;;22.90;99.90;;;;;;4941486;29;20227;-87
2023/09/07 07:19:32;;;;;;;11.10;3.92;;;22.90;99.90;;;;;;4949072;29;20211;-87
2023/09/07 07:22:03;;;;;;;12.23;3.90;;;22.80;99.90;;;;;;4957800;29;20577;-86
2023/09/07 07:24:35;;;;;;;10.57;3.55;;;22.70;99.90;;;;;;4957346;29;20200;-89
2023/09/07 07:27:10;;;;;;;12.05;3.60;;;22.60;99.90;;;;;;4956458;29;20200;-91
2023/09/07 07:29:43;;;;;;;13.27;3.50;;;22.60;99.90;;;;;;4940725;29;20307;-88
2023/09/07 07:32:14;;;;;;;16.65;4.10;;;22.60;99.90;;;;;;4951099;29;20203;-89
2023/09/07 07:34:45;;;;;;;12.30;3.90;;;22.50;99.90;;;;;;4938143;29;20229;-89
2023/09/07 07:37:15;;;;;;;14.02;3.90;;;22.50;99.90;;;;;;4950717;29;20224;-89
2023/09/07 07:39:46;;;;;;;13.38;4.63;;;22.50;99.90;;;;;;4957231;29;20667;-89
2023/09/07 07:42:20;;;;;;;13.40;4.20;;;22.40;99.90;;;;;;4957545;29;20196;-88
2023/09/07 07:44:51;;;;;;;13.80;4.45;;;22.40;99.90;;;;;;4957373;29;20215;-88
2023/09/07 07:47:22;;;;;;;12.68;3.42;;;22.30;99.90;;;;;;4956998;29;20632;-88
2023/09/07 07:49:54;;;;;;;14.38;4.30;;;22.20;99.90;;;;;;4971392;29;20750;-88
2023/09/07 07:52:25;;;;;;;16.50;4.10;;;22.20;99.90;;;;;;4956782;29;20207;-89
2023/09/07 07:54:56;;;;;;;19.85;4.28;;;22.10;99.90;;;;;;4957089;29;20204;-89
2023/09/07 07:57:29;;;;;;;17.88;4.25;;;22.10;99.90;;;;;;4957142;29;20208;-89
2023/09/07 08:00:00;;;;;;;13.95;4.15;;;22.00;99.90;;;;;;4957001;29;20235;-89
2023/09/07 08:02:31;;;;;;;16.08;3.92;;;22.00;99.90;;;;;;4956674;29;20200;-89
2023/09/07 08:05:02;;;;;;;18.67;4.85;;;21.90;99.90;;;;;;4950533;29;20208;-89
2023/09/07 08:07:33;;;;;;;13.02;3.83;;;21.90;99.90;;;;;;4955932;28;20223;-88
2023/09/07 08:10:04;;;;;;;13.98;3.95;;;21.90;99.90;;;;;;4946492;29;20224;-88
2023/09/07 08:12:39;;;;;;;11.90;4.07;;;21.90;99.90;;;;;;4948428;29;20664;-88
2023/09/07 08:15:10;;;;;;;14.05;3.90;;;21.90;99.90;;;;;;4937796;29;20191;-87
2023/09/07 08:17:41;;;;;;;14.27;3.65;;;21.90;99.90;;;;;;4959817;29;20192;-87
2023/09/07 08:20:12;;;;;;;13.60;4.03;;;21.90;99.90;;;;;;4953341;29;20192;-88
2023/09/07 08:22:45;;;;;;;13.30;3.67;;;21.90;99.90;;;;;;4957199;29;20198;-88
2023/09/07 08:25:16;;;;;;;9.90;3.30;;;22.00;99.90;;;;;;4964572;29;20681;-91
2023/09/07 08:27:50;;;;;;;12.50;3.63;;;22.00;99.90;;;;;;4973643;28;20188;-85
2023/09/07 08:30:24;;;;;;;10.15;3.88;;;22.00;99.90;;;;;;4979284;28;20279;-84
2023/09/07 08:32:55;;;;;;;9.38;3.58;;;22.00;99.90;;;;;;4978739;28;20186;-86
2023/09/07 08:35:27;;;;;;;11.05;3.70;;;22.00;99.90;;;;;;4978913;28;20200;-85
2023/09/07 08:38:01;;;;;;;13.93;4.15;;;22.00;99.90;;;;;;4979350;28;20228;-83
2023/09/07 08:40:32;;;;;;;12.65;3.90;;;22.00;99.90;;;;;;4952750;29;20207;-87
2023/09/07 08:43:23;;;;;;;11.50;3.70;;;22.10;99.90;;;;;;4968183;29;20208;-86
2023/09/07 08:46:06;;;;;;;7.82;3.88;;;22.00;99.90;;;;;;4966637;29;20196;-85
2023/09/07 08:48:38;;;;;;;12.20;4.22;;;22.00;99.90;;;;;;4961073;29;20204;-86
2023/09/07 08:51:11;;;;;;;12.35;4.53;;;22.10;99.90;;;;;;4950522;29;20224;-87
2023/09/07 08:53:45;;;;;;;15.77;4.63;;;22.10;99.90;;;;;;4951340;29;20938;-86
2023/09/07 08:56:17;;;;;;;10.05;3.67;;;22.10;99.90;;;;;;4963469;28;20214;-86
2023/09/07 08:58:50;;;;;;;10.90;3.92;;;22.10;99.90;;;;;;4954422;29;20664;-86
2023/09/07 09:01:21;;;;;;;12.55;4.43;;;22.10;99.90;;;;;;4961028;29;20204;-85
2023/09/07 09:03:52;;;;;;;11.93;4.60;;;22.10;99.90;;;;;;4971017;29;20260;-86
2023/09/07 09:06:24;;;;;;;11.90;4.10;;;22.20;99.90;;;;;;4973198;29;20192;-87
2023/09/07 09:08:56;;;;;;;12.57;4.47;;;22.20;99.90;;;;;;4976412;29;20228;-87
2023/09/07 09:11:28;;;;;;;8.98;3.90;;;22.20;99.90;;;;;;4965519;29;20192;-86
2023/09/07 09:14:02;;;;;;;8.70;3.80;;;22.20;99.90;;;;;;4971837;28;20244;-86
2023/09/07 09:16:34;;;;;;;12.13;4.20;;;22.20;99.90;;;;;;4976400;28;20189;-86
2023/09/07 09:19:05;;;;;;;11.15;4.28;;;22.20;99.90;;;;;;4976489;28;20250;-87
2023/09/07 09:21:35;;;;;;;12.18;3.63;;;22.20;99.90;;;;;;4977013;29;20184;-87
2023/09/07 09:24:11;;;;;;;12.32;3.97;;;22.10;99.90;;;;;;4974560;29;20206;-87
2023/09/07 09:26:42;;;;;;;11.52;4.28;;;22.10;99.90;;;;;;4939390;29;20609;-87
2023/09/07 09:29:16;;;;;;;7.68;3.60;;;22.10;99.90;;;;;;4955991;28;20678;-87
2023/09/07 09:31:49;;;;;;;10.23;4.05;;;22.10;99.90;;;;;;4938548;28;20200;-87
2023/09/07 09:34:20;;;;;;;7.70;3.50;;;22.20;99.90;;;;;;4950682;29;20275;-87
2023/09/07 09:36:51;;;;;;;8.40;3.85;;;22.20;99.90;;;;;;4938337;29;20230;-88
2023/09/07 09:39:29;;;;;;;12.00;4.22;;;22.10;99.90;;;;;;4937646;29;20212;-89
2023/09/07 09:42:00;;;;;;;11.10;4.10;;;22.20;99.90;;;;;;4950653;29;20236;-89
2023/09/07 09:44:36;;;;;;;9.52;4.03;;;22.10;99.90;;;;;;4956742;29;20200;-90
2023/09/07 09:47:07;;;;;;;10.77;4.38;;;22.10;99.90;;;;;;4950007;29;20211;-89
2023/09/07 09:49:40;;;;;;;8.88;4.07;;;22.10;99.90;;;;;;4955967;29;20220;-89
2023/09/07 09:52:12;;;;;;;10.60;4.10;;;22.10;99.90;;;;;;4955455;29;20203;-88
2023/09/07 09:54:45;;;;;;;14.07;4.50;;;22.10;99.90;;;;;;4938673;29;20196;-89
2023/09/07 09:57:21;;;;;;;8.95;4.18;;;22.20;99.90;;;;;;4942039;29;20205;-87
2023/09/07 09:59:56;;;;;;;9.30;4.35;;;22.10;99.90;;;;;;4955916;29;20210;-89
2023/09/07 10:02:27;;;;;;;10.48;5.10;;;22.10;99.90;;;;;;4957648;29;20197;-87
2023/09/07 10:04:58;;;;;;;11.05;4.63;;;22.20;99.90;;;;;;4949183;29;20199;-90
2023/09/07 10:07:45;;;;;;;9.90;5.65;;;22.20;99.90;;;;;;4943607;29;20204;-89
2023/09/07 10:10:17;;;;;;;11.52;4.70;;;22.20;99.90;;;;;;4951533;29;20212;-88
2023/09/07 10:12:48;;;;;;;11.23;7.25;;;22.20;99.90;;;;;;4955715;29;20199;-88
2023/09/07 10:15:29;;;;;;;12.73;7.38;;;22.30;99.90;;;;;;4955677;29;20207;-90
2023/09/07 10:18:13;;;;;;;11.30;6.10;;;22.40;99.90;;;;;;4955662;29;20203;-88
2023/09/07 10:20:59;;;;;;;11.27;7.32;;;22.40;99.90;;;;;;4937699;29;20212;-89
2023/09/07 10:23:40;;;;;;;20.58;8.27;;;22.40;99.90;;;;;;4947695;29;20222;-88
2023/09/07 10:26:16;;;;;;;14.25;8.10;;;22.40;99.90;;;;;;4935746;29;20236;-90
2023/09/07 10:28:49;;;;;;;16.13;9.25;;;22.50;99.90;;;;;;4935676;29;20197;-89
2023/09/07 10:31:23;;;;;;;18.42;10.95;;;22.60;99.90;;;;;;4937735;29;20263;-89
2023/09/07 10:33:54;;;;;;;15.45;9.50;;;22.60;99.90;;;;;;4957631;29;20473;-88
2023/09/07 10:36:26;;;;;;;14.15;8.82;;;22.70;99.90;;;;;;4948066;29;20217;-89
2023/09/07 10:38:58;;;;;;;14.38;8.00;;;22.80;99.90;;;;;;4968280;29;20197;-90
2023/09/07 10:41:29;;;;;;;13.00;6.63;;;22.90;99.90;;;;;;4954010;29;20216;-90
2023/09/07 10:43:59;;;;;;;11.48;7.03;;;22.90;99.90;;;;;;4961981;29;20204;-89
2023/09/07 10:46:33;;;;;;;15.70;7.82;;;23.00;99.90;;;;;;4965475;29;20232;-90
2023/09/07 10:49:04;;;;;;;11.45;6.53;;;23.00;99.90;;;;;;4961214;29;20204;-89
2023/09/07 10:51:35;;;;;;;9.45;5.53;;;23.10;99.90;;;;;;4961428;29;20223;-89
2023/09/07 10:54:17;;;;;;;10.65;5.90;;;23.10;99.90;;;;;;4959750;29;20188;-89
2023/09/07 10:56:49;;;;;;;8.43;5.38;;;23.20;99.90;;;;;;4948979;29;20207;-89
2023/09/07 10:59:21;;;;;;;8.68;5.15;;;23.20;99.90;;;;;;4945334;29;20213;-90
2023/09/07 11:02:05;;;;;;;9.88;5.10;;;23.30;99.90;;;;;;4955433;29;20200;-89
2023/09/07 11:04:36;;;;;;;9.52;5.65;;;23.30;99.90;;;;;;4955044;29;20206;-89
2023/09/07 11:07:08;;;;;;;9.80;5.97;;;23.30;99.90;;;;;;4973318;29;20284;-90
2023/09/07 11:09:45;;;;;;;10.40;6.60;;;23.30;99.90;;;;;;4960664;29;20204;-89
2023/09/07 11:12:17;;;;;;;13.98;7.80;;;23.40;99.90;;;;;;4953337;29;20210;-89
2023/09/07 11:14:52;;;;;;;15.63;9.68;;;23.50;99.90;;;;;;4961329;29;20207;-90
2023/09/07 11:17:29;;;;;;;19.38;11.50;;;23.60;99.90;;;;;;4959100;29;20211;-89
2023/09/07 11:20:00;;;;;;;24.38;14.00;;;23.70;99.90;;;;;;4942841;29;20212;-90
2023/09/07 11:22:32;;;;;;;23.65;16.13;;;23.80;99.90;;;;;;4943648;29;20203;-92
2023/09/07 11:25:04;;;;;;;27.25;17.95;;;23.90;99.90;;;;;;4941526;29;20200;-89
2023/09/07 11:27:35;;;;;;;30.55;19.17;;;24.10;99.90;;;;;;4923673;29;20212;-91
2023/09/07 11:30:07;;;;;;;33.72;20.08;;;24.10;99.90;;;;;;4956778;29;20227;-91
2023/09/07 11:32:42;;;;;;;25.67;18.33;;;24.20;99.90;;;;;;4954767;29;20204;-90
2023/09/07 11:35:15;;;;;;;25.05;17.85;;;24.30;99.90;;;;;;4959445;29;20200;-90
2023/09/07 11:37:54;;;;;;;23.27;15.57;;;24.30;99.90;;;;;;4960113;29;20544;-92
2023/09/07 11:40:25;;;;;;;20.90;13.63;;;24.40;99.90;;;;;;4953512;29;20204;-88
2023/09/07 11:42:57;;;;;;;26.13;11.73;;;24.50;99.90;;;;;;4952711;28;20299;-90
2023/09/07 11:45:29;;;;;;;15.43;9.65;;;24.60;99.90;;;;;;4953429;29;20197;-90
2023/09/07 11:48:03;;;;;;;13.90;8.65;;;24.70;99.90;;;;;;4948863;29;20200;-93
2023/09/07 11:50:34;;;;;;;10.90;7.50;;;24.80;99.90;;;;;;4958304;29;20579;-90
2023/09/07 11:53:05;;;;;;;10.40;7.22;;;24.80;99.90;;;;;;4959164;29;20657;-90
2023/09/07 11:55:37;;;;;;;11.48;6.40;;;24.80;99.90;;;;;;4959522;29;20215;-89
2023/09/07 11:58:10;;;;;;;7.25;4.45;;;24.90;99.90;;;;;;4963106;29;20207;-90
2023/09/07 12:00:41;;;;;;;6.05;4.22;;;24.90;99.90;;;;;;4953661;29;20205;-90
2023/09/07 12:03:15;;;;;;;9.50;6.20;;;25.00;99.90;;;;;;4954683;29;20197;-90
2023/09/07 12:05:46;;;;;;;6.78;4.50;;;25.00;99.90;;;;;;4956010;29;20199;-91
2023/09/07 12:08:17;;;;;;;6.75;3.80;;;25.00;99.60;;;;;;4950932;29;20207;-91
2023/09/07 12:10:49;;;;;;;6.72;3.22;;;25.00;99.10;;;;;;4947637;29;20196;-90
2023/09/07 12:13:19;;;;;;;6.82;3.55;;;25.00;99.10;;;;;;4964591;28;20192;-90
2023/09/07 12:15:50;;;;;;;4.70;3.30;;;25.00;98.50;;;;;;4947441;29;20197;-90
2023/09/07 12:18:26;;;;;;;5.15;2.70;;;25.00;98.50;;;;;;4956514;29;20289;-90
2023/09/07 12:20:57;;;;;;;4.38;2.72;;;25.00;98.40;;;;;;4943651;29;20238;-90
2023/09/07 12:23:28;;;;;;;4.97;3.30;;;25.00;98.30;;;;;;4939869;29;20200;-90
2023/09/07 12:26:00;;;;;;;5.30;3.40;;;25.00;98.10;;;;;;4957096;29;20199;-91
2023/09/07 12:28:31;;;;;;;4.47;3.33;;;24.90;98.10;;;;;;4922411;29;20200;-91
2023/09/07 12:31:02;;;;;;;6.70;2.72;;;24.90;98.10;;;;;;4949045;29;20223;-89
2023/09/07 12:33:37;;;;;;;4.57;2.47;;;25.00;97.30;;;;;;4946184;29;20275;-91
2023/09/07 12:36:10;;;;;;;6.78;2.42;;;25.10;96.70;;;;;;4958335;28;20211;-91
2023/09/07 12:38:42;;;;;;;8.23;1.75;;;25.10;97.00;;;;;;4964665;29;20200;-90
2023/09/07 12:41:13;;;;;;;6.80;1.75;;;24.80;98.30;;;;;;4955589;29;20197;-91
2023/09/07 12:43:45;;;;;;;7.63;1.80;;;24.50;99.50;;;;;;4952508;28;20216;-93
2023/09/07 12:46:15;;;;;;;3.45;1.42;;;24.40;99.90;;;;;;4955953;29;20247;-87
2023/09/07 12:48:48;;;;;;;6.95;1.58;;;24.10;99.90;;;;;;4955800;29;20211;-89
2023/09/07 12:51:19;;;;;;;16.17;1.67;;;24.00;99.90;;;;;;4955478;29;20224;-89
2023/09/07 12:53:51;;;;;;;4.00;1.02;;;23.90;99.90;;;;;;4952682;28;20208;-88
2023/09/07 12:56:22;;;;;;;9.57;1.60;;;23.80;99.90;;;;;;4953363;29;20207;-87
2023/09/07 12:58:54;;;;;;;7.97;1.20;;;23.70;99.90;;;;;;4942036;29;20251;-87
2023/09/07 13:01:26;;;;;;;4.20;1.10;;;23.60;99.90;;;;;;4954522;29;20210;-88
2023/09/07 13:04:00;;;;;;;4.95;1.40;;;23.50;99.90;;;;;;4956202;29;20214;-89
2023/09/07 13:06:30;;;;;;;4.78;1.10;;;23.40;99.90;;;;;;4955630;29;20207;-87